• Join FlightAware (Why Join?)
  • Login
  • US Flag 
04:13AM EST


 

Airport Tracker/Info


-or-


 

Live Flight TrackerFlight Track Log ✈ UAL495 ✈ 21-Apr-2013 ✈ KLAX - KDEN

Flight Track Log - Related Links

Times and Time Zones

All times are in EDT time to prevent confusion due to time zone crossing. See the UAL495 flight status page for this flight to view local times or setup timezone preferences in your user account.

Time Position Orientation Groundspeed Altitude Reporting Facility
EDT Latitude Longitude Course Direction KTS MPH feet Rate Location/Type
08:54AM 33.9344 -118.4369 90° East 183 211 1,400  Level Los Angeles Center
08:55AM 33.9008 -118.4981 236° Southwest 227 261 3,800 2,580 Climbing Los Angeles Center
08:56AM 33.8383 -118.5297 203° Southwest 265 305 6,700 2,640 Climbing Los Angeles Center
08:57AM 33.7666 -118.6221 132° Southeast  Level FlightAware Approximate
08:57AM 33.7633 -118.5253 177° South 285 328 9,200  Level Los Angeles Center
08:58AM 33.6827 -118.5131 101° East  Level FlightAware Approximate
08:58AM 33.6853 -118.4967 163° South 318 366 11,500  Level Los Angeles Center
08:59AM 33.6484 -118.3710 116° Southeast  Level FlightAware Approximate
08:59AM 33.6758 -118.3894 96° East 343 395 13,900  Level Los Angeles Center
09:00AM 33.6333 -118.2261 90° East  Level FlightAware Approximate
09:00AM 33.7119 -118.2781 69° East 373 429 15,200  Level Los Angeles Center
09:01AM 33.7608 -118.1272 69° East 412 474 17,700 2,400 Climbing Los Angeles Center
09:02AM 33.8267 -118.0136 55° Northeast 422 486 20,000 1,920 Climbing Los Angeles Center
09:03AM 33.9219 -117.9303 36° Northeast 425 489 21,600 1,560 Climbing Los Angeles Center
09:04AM 34.0192 -117.8392 38° Northeast 438 504 23,200 1,980 Climbing Los Angeles Center
09:05AM 34.1161 -117.7436 39° Northeast 449 517 25,600 1,920 Climbing Los Angeles Center
09:07AM 34.1994 -117.6258 49° Northeast 462 532 27,100 1,200 Climbing Los Angeles Center
09:08AM 34.2867 -117.5067 48° Northeast 472 543 28,100 1,140 Climbing Los Angeles Center
09:09AM 34.3767 -117.3844 48° Northeast 484 557 29,400 1,500 Climbing Los Angeles Center
09:10AM 34.4694 -117.2583 48° Northeast 482 555 31,200 1,560 Climbing Los Angeles Center
09:11AM 34.5569 -117.1389 48° Northeast 478 550 32,600 1,320 Climbing Los Angeles Center
09:12AM 34.6447 -117.0178 49° Northeast 480 552 33,900 1,260 Climbing Los Angeles Center
09:13AM 34.7311 -116.8969 49° Northeast 478 550 35,200 1,080 Climbing Los Angeles Center
09:14AM 34.8164 -116.7781 49° Northeast 472 543 36,400 780 Climbing Los Angeles Center
09:15AM 34.9200 -116.6328 49° Northeast 475 547 37,000 240 Climbing Los Angeles Center
09:16AM 35.0103 -116.5139 47° Northeast 480 552 37,000  Level Los Angeles Center
09:17AM 35.1039 -116.3981 45° Northeast 481 554 37,000  Level Los Angeles Center
09:18AM 35.1769 -116.3061 46° Northeast 477 549 37,000  Level Los Angeles Center
09:19AM 35.2872 -116.1686 45° Northeast 474 545 37,000  Level Los Angeles Center
09:20AM 35.3764 -116.0536 46° Northeast 469 540 37,000  Level Los Angeles Center
09:21AM 35.4667 -115.9408 45° Northeast 467 537 37,000  Level Los Angeles Center
09:22AM 35.5614 -115.8239 45° Northeast 466 536 37,000  Level Los Angeles Center
09:23AM 35.6503 -115.7094 46° Northeast 464 534 37,000  Level Los Angeles Center
09:24AM 35.7397 -115.5961 46° Northeast 464 534 37,000  Level Los Angeles Center
09:25AM 35.8289 -115.4825 46° Northeast 464 534 37,000  Level Los Angeles Center
09:26AM 35.9347 -115.3478 46° Northeast 460 529 37,000  Level Los Angeles Center
09:27AM 36.0189 -115.2300 49° Northeast 467 537 37,000  Level Los Angeles Center
09:28AM 36.0894 -115.0942 57° Northeast 476 548 37,000  Level Los Angeles Center
09:29AM 36.1494 -114.9514 62° Northeast 473 544 37,000  Level Los Angeles Center
09:30AM 36.2022 -114.7994 67° East 479 551 37,000  Level Los Angeles Center
09:31AM 36.2561 -114.6478 66° East 482 555 37,000  Level Los Angeles Center
09:32AM 36.3089 -114.4961 67° East 481 554 37,000  Level Los Angeles Center
09:33AM 36.3625 -114.3433 66° East 484 557 37,000  Level Los Angeles Center
09:34AM 36.4156 -114.1894 67° East 485 558 37,000  Level Los Angeles Center
09:35AM 36.4683 -114.0347 67° East 486 559 37,000  Level Los Angeles Center
09:36AM 36.5264 -113.8639 67° East 487 560 37,000  Level Los Angeles Center
09:37AM 36.5797 -113.7097 67° East 488 562 37,000  Level Los Angeles Center
09:38AM 36.6322 -113.5550 67° East 488 562 37,000  Level Los Angeles Center
09:39AM 36.6850 -113.3994 67° East 489 563 37,000  Level Los Angeles Center
09:40AM 36.7378 -113.2442 67° East 489 563 37,000  Level Los Angeles Center
09:41AM 36.7900 -113.0872 67° East 493 567 37,000  Level Los Angeles Center
09:42AM 36.8414 -112.9319 67° East 489 563 37,000  Level Los Angeles Center
09:43AM 36.8944 -112.7750 67° East 494 568 37,000  Level Los Angeles Center
09:44AM 36.9453 -112.6178 68° East 493 567 37,000  Level Los Angeles Center
09:45AM 37.0072 -112.4294 68° East 492 566 37,000  Level Los Angeles Center
09:46AM 37.0578 -112.2700 68° East 496 571 37,000  Level Los Angeles Center
09:47AM 37.1097 -112.1136 67° East 492 566 37,000  Level Los Angeles Center
09:48AM 37.1603 -111.9542 68° East 495 570 37,000  Level Los Angeles Center
09:49AM 37.2111 -111.7944 68° East 496 571 37,000  Level Los Angeles Center
09:50AM 37.2342 -111.7300 66° East 497 572 37,000  Level Denver Center
09:51AM 37.2814 -111.5706 70° East 495 570 37,000  Level Denver Center
09:52AM 37.3433 -111.3781 68° East 499 574 37,000  Level Denver Center
09:53AM 37.3942 -111.2158 68° East 501 577 37,000  Level Denver Center
09:54AM 37.4461 -111.0522 68° East 503 579 37,000  Level Denver Center
09:55AM 37.4958 -110.8911 69° East 500 575 37,000  Level Denver Center
09:56AM 37.5447 -110.7267 69° East 503 579 37,000 -300 Level Denver Center
09:57AM 37.5950 -110.5642 69° East 500 575 36,500 -1,020 Descending Denver Center
09:58AM 37.6483 -110.3872 69° East 504 580 35,000 -780 Descending Denver Center
09:59AM 37.6969 -110.2269 69° East 510 587 35,000  Level Denver Center
10:00AM 37.7453 -110.0644 69° East 514 592 35,000  Level Denver Center
10:01AM 37.8017 -109.8753 69° East 515 593 35,000  Level Denver Center
10:02AM 37.8500 -109.7131 69° East 515 593 35,000  Level Denver Center
10:03AM 37.9058 -109.5236 69° East 514 592 35,000  Level Denver Center
10:04AM 37.9611 -109.3328 70° East 517 595 35,000  Level Denver Center
10:05AM 38.0164 -109.1428 70° East 515 593 35,000  Level Denver Center
10:06AM 38.0619 -108.9831 70° East 518 596 35,000  Level Denver Center
10:07AM 38.1097 -108.8167 70° East 523 602 35,000  Level Denver Center
10:08AM 38.1647 -108.6231 70° East 522 601 35,000  Level Denver Center
10:09AM 38.2122 -108.4567 70° East 523 602 35,000  Level Denver Center
10:10AM 38.2667 -108.2625 70° East 522 601 35,000  Level Denver Center
10:11AM 38.3133 -108.0969 70° East 523 602 35,000  Level Denver Center
10:12AM 38.3672 -107.9031 70° East 522 601 35,000  Level Denver Center
10:13AM 38.4131 -107.7347 71° East 525 604 35,000  Level Denver Center
10:14AM 38.4617 -107.5719 69° East 517 595 35,000  Level Denver Center
10:15AM 38.5392 -107.3989 60° Northeast 504 580 35,000 -300 Level Denver Center
10:16AM 38.6039 -107.2528 60° Northeast 498 573 34,400 -1,560 Descending Denver Center
10:17AM 38.6747 -107.0953 60° Northeast 489 563 31,900 -2,100 Descending Denver Center
10:18AM 38.7389 -106.9486 61° Northeast 472 543 30,200 -1,620 Descending Denver Center
10:19AM 38.8006 -106.8114 60° Northeast 448 516 28,600 -1,860 Descending Denver Center
10:20AM 38.8617 -106.6772 60° Northeast 438 504 26,400 -1,560 Descending Denver Center
10:21AM 38.9258 -106.5364 60° Northeast 430 495 25,500 -1,080 Descending Denver Center
10:22AM 38.9906 -106.3928 60° Northeast 417 480 24,200 -1,320 Descending Denver Center
10:24AM 39.0456 -106.2708 60° Northeast 413 475 22,900 -1,020 Descending Denver Center
10:25AM 39.1025 -106.1433 60° Northeast 405 466 22,200 -660 Descending Denver Center
10:26AM 39.1594 -106.0144 60° Northeast 407 468 21,600 -1,200 Descending Denver Center
10:27AM 39.2153 -105.8914 60° Northeast 396 456 19,800 -1,260 Descending Denver Center
10:28AM 39.2686 -105.7683 61° Northeast 391 450 19,000 -420 Descending Denver Center
10:29AM 39.3308 -105.6264 60° Northeast 387 445 19,000 -180 Level Denver Center
10:30AM 39.3828 -105.5072 61° Northeast 380 437 18,700 -780 Descending Denver Center
10:31AM 39.3992 -105.3892 80° East 348 400 17,400 -1,380 Descending Denver Center
10:32AM 39.4047 -105.2603 87° East 333 383 15,900 -1,440 Descending Denver Center
10:33AM 39.4094 -105.1464 87° East 318 366 14,500 -1,380 Descending Denver Center
10:34AM 39.4156 -105.0103 87° East 312 359 12,800 -1,140 Descending Denver Center
10:35AM 39.4472 -104.9044 69° East 292 336 12,000 -840 Descending Denver Center
10:36AM 39.4914 -104.8206 56° Northeast 279 321 11,100 -1,260 Descending Denver Center
10:37AM 39.5606 -104.7725 28° Northeast 280 322 9,400 -1,080 Descending Denver Center
10:38AM 39.6350 -104.7294 24° Northeast 266 306 8,900 -540 Descending Denver Center